Time;durP1;ratioP1;P1;durP2;ratioP2;P2;SDS_P1;SDS_P2;PMS_P1;PMS_P2;Temp;Humidity;BMP_temperature;BMP_pressure;BME280_temperature;BME280_humidity;BME280_pressure;Samples;Min_cycle;Max_cycle;Signal;HPM_P1;HPM_P2
2023/10/16 00:02:24;;;;;;;1999.90;999.90;;;2.20;95.50;;;;;;5052408;28;20029;-72
2023/10/16 00:04:51;;;;;;;1999.90;999.90;;;2.10;95.90;;;;;;5054710;28;20074;-73
2023/10/16 00:07:20;;;;;;;1999.90;999.90;;;2.10;95.90;;;;;;5052677;28;20048;-72
2023/10/16 00:09:49;;;;;;;1999.90;999.90;;;2.10;95.90;;;;;;5040132;28;20498;-72
2023/10/16 00:12:19;;;;;;;1999.90;999.90;;;2.10;96.00;;;;;;5050376;28;20096;-73
2023/10/16 00:14:46;;;;;;;1999.90;999.90;;;2.00;95.80;;;;;;5051737;28;20040;-73
2023/10/16 00:17:14;;;;;;;1999.90;999.90;;;2.00;96.10;;;;;;5058299;28;20028;-72
2023/10/16 00:19:40;;;;;;;1999.90;999.90;;;1.90;96.20;;;;;;5039261;28;20037;-72
2023/10/16 00:22:16;;;;;;;1999.90;999.90;;;1.90;96.20;;;;;;5053388;28;20029;-72
2023/10/16 00:24:46;;;;;;;1999.90;999.90;;;1.80;96.20;;;;;;5036168;28;20171;-73
2023/10/16 00:27:14;;;;;;;1999.90;999.90;;;1.80;96.30;;;;;;5052190;28;20075;-74
2023/10/16 00:29:44;;;;;;;1999.90;999.90;;;1.80;96.30;;;;;;5049935;28;20452;-73
2023/10/16 00:32:11;;;;;;;1999.90;999.90;;;1.70;96.20;;;;;;5045033;28;20543;-73
2023/10/16 00:34:38;;;;;;;1999.90;999.90;;;1.70;96.30;;;;;;5055813;28;20059;-72
2023/10/16 00:37:07;;;;;;;1999.90;999.90;;;1.60;96.20;;;;;;5062388;28;20036;-72
2023/10/16 00:39:33;;;;;;;1999.90;999.90;;;1.60;96.40;;;;;;5058698;28;20506;-72
2023/10/16 00:41:59;;;;;;;1999.90;999.90;;;1.60;96.60;;;;;;5053907;28;20526;-74
2023/10/16 00:44:34;;;;;;;1999.90;999.90;;;1.60;96.60;;;;;;5052531;28;20033;-72
2023/10/16 00:47:04;;;;;;;1999.90;999.90;;;1.50;96.50;;;;;;5055530;28;20031;-72
2023/10/16 00:49:35;;;;;;;1999.90;999.90;;;1.50;96.60;;;;;;5051295;28;20041;-72
2023/10/16 00:52:05;;;;;;;1999.90;999.90;;;1.50;96.60;;;;;;5060945;28;20167;-73
2023/10/16 00:54:33;;;;;;;1999.90;999.90;;;1.50;96.80;;;;;;5052027;28;20021;-72
2023/10/16 00:57:00;;;;;;;1999.90;999.90;;;1.50;97.00;;;;;;5050210;28;20033;-72
2023/10/16 00:59:29;;;;;;;1999.90;999.90;;;1.50;97.10;;;;;;5063279;28;20391;-72
2023/10/16 01:04:40;;;;;;;1999.90;999.90;;;1.50;97.60;;;;;;5058372;28;20056;-72
2023/10/16 01:07:06;;;;;;;1999.90;999.90;;;1.60;97.70;;;;;;5054213;28;20523;-72
2023/10/16 01:09:35;;;;;;;1999.90;999.90;;;1.50;97.50;;;;;;5046053;28;20029;-73
2023/10/16 01:12:11;;;;;;;1999.90;999.90;;;1.40;97.50;;;;;;5051447;28;20550;-73
2023/10/16 01:14:38;;;;;;;1999.90;999.90;;;1.50;97.70;;;;;;5057295;28;20651;-73
2023/10/16 01:17:14;;;;;;;1999.90;999.90;;;1.40;97.80;;;;;;5052998;28;20037;-72
2023/10/16 01:19:43;;;;;;;1999.90;999.90;;;1.40;97.70;;;;;;5049647;28;20037;-72
2023/10/16 01:22:11;;;;;;;1999.90;999.90;;;1.30;97.70;;;;;;5052555;28;20033;-72
2023/10/16 01:24:43;;;;;;;1999.90;999.90;;;1.40;97.70;;;;;;5051604;28;20525;-71
2023/10/16 01:27:14;;;;;;;1999.90;999.90;;;1.30;97.70;;;;;;5054637;28;20039;-72
2023/10/16 01:29:40;;;;;;;1999.90;999.90;;;1.40;97.80;;;;;;5055068;28;20425;-72
2023/10/16 01:32:07;;;;;;;1999.90;999.90;;;1.30;97.80;;;;;;5048393;28;20056;-72
2023/10/16 01:34:34;;;;;;;1999.90;999.90;;;1.30;97.80;;;;;;5056996;28;20598;-73
2023/10/16 01:37:08;;;;;;;1999.90;999.90;;;1.30;97.90;;;;;;5054708;28;20464;-72
2023/10/16 01:39:49;;;;;;;1999.90;999.90;;;1.30;97.80;;;;;;5056331;28;20048;-72
2023/10/16 01:42:18;;;;;;;1999.90;999.90;;;1.20;97.80;;;;;;5053073;28;20501;-73
2023/10/16 01:44:44;;;;;;;1999.90;999.90;;;1.20;97.90;;;;;;5054860;28;20036;-73
2023/10/16 01:47:17;;;;;;;1999.90;999.90;;;1.20;97.70;;;;;;5052068;28;20025;-72
2023/10/16 01:49:44;;;;;;;1999.90;999.90;;;1.20;97.80;;;;;;5057494;28;20029;-73
2023/10/16 01:52:11;;;;;;;1999.90;999.90;;;1.20;97.90;;;;;;5054089;28;20043;-73
2023/10/16 01:54:38;;;;;;;1999.90;999.90;;;1.20;98.00;;;;;;5053845;28;20350;-72
2023/10/16 01:57:12;;;;;;;1999.90;999.90;;;1.20;97.90;;;;;;5046338;28;20032;-72
2023/10/16 01:59:45;;;;;;;1999.90;999.90;;;1.20;97.80;;;;;;5061745;28;20091;-72
2023/10/16 02:02:12;;;;;;;1999.90;999.90;;;1.20;97.90;;;;;;5054832;28;20033;-72
2023/10/16 02:04:39;;;;;;;1999.90;999.90;;;1.20;97.80;;;;;;5053388;28;20040;-72
2023/10/16 02:07:09;;;;;;;1999.90;999.90;;;1.20;98.00;;;;;;5052439;28;20033;-72
2023/10/16 02:09:38;;;;;;;1999.90;999.90;;;1.20;97.90;;;;;;5054309;28;20064;-72
2023/10/16 02:12:14;;;;;;;1999.90;999.90;;;1.10;97.60;;;;;;5057443;28;20064;-72
2023/10/16 02:14:40;;;;;;;1999.90;999.90;;;1.10;97.60;;;;;;5053984;28;20084;-73
2023/10/16 02:17:14;;;;;;;1999.90;999.90;;;1.10;97.60;;;;;;5050449;28;20024;-73
2023/10/16 02:19:43;;;;;;;1999.90;999.90;;;1.00;97.50;;;;;;5049447;28;20558;-72
2023/10/16 02:22:11;;;;;;;1999.90;999.90;;;0.90;97.40;;;;;;5051073;28;20667;-72
2023/10/16 02:24:37;;;;;;;1999.90;999.90;;;0.90;97.70;;;;;;5061972;28;20037;-72
2023/10/16 02:27:11;;;;;;;1999.90;999.90;;;0.90;97.30;;;;;;5055315;28;20376;-71
2023/10/16 02:29:37;;;;;;;1999.90;999.90;;;0.90;97.40;;;;;;5053740;28;20033;-72
2023/10/16 02:32:04;;;;;;;1999.90;999.90;;;0.90;97.30;;;;;;5052865;28;20531;-73
2023/10/16 02:34:36;;;;;;;1999.90;999.90;;;0.80;97.20;;;;;;5063201;28;20120;-73
2023/10/16 02:37:14;;;;;;;1999.90;999.90;;;0.90;97.30;;;;;;5055666;28;20497;-72
2023/10/16 02:39:41;;;;;;;1999.90;999.90;;;0.80;97.10;;;;;;5049883;28;20065;-70
2023/10/16 02:42:12;;;;;;;1999.90;999.90;;;0.80;96.90;;;;;;5046396;28;20028;-72
2023/10/16 02:44:45;;;;;;;1999.90;999.90;;;0.70;97.10;;;;;;5052226;28;20032;-72
2023/10/16 02:47:26;;;;;;;1999.90;999.90;;;0.70;96.90;;;;;;5060881;28;20906;-73
2023/10/16 02:49:52;;;;;;;1999.90;999.90;;;0.80;97.20;;;;;;5056895;28;20443;-71
2023/10/16 02:52:19;;;;;;;1999.90;999.90;;;0.70;97.00;;;;;;5066717;28;20143;-72
2023/10/16 02:54:48;;;;;;;1999.90;999.90;;;0.60;96.80;;;;;;5054528;28;20048;-72
2023/10/16 02:57:14;;;;;;;1999.90;999.90;;;0.70;97.10;;;;;;5054038;28;20025;-72
2023/10/16 02:59:43;;;;;;;1999.90;999.90;;;0.60;96.90;;;;;;5053362;28;20040;-71
2023/10/16 03:02:17;;;;;;;1999.90;999.90;;;0.60;97.00;;;;;;5055116;28;20037;-72
2023/10/16 03:04:48;;;;;;;1999.90;999.90;;;0.60;96.90;;;;;;5052898;28;20398;-72
2023/10/16 03:07:13;;;;;;;1999.90;999.90;;;0.60;97.10;;;;;;5054765;28;20510;-71
2023/10/16 03:09:43;;;;;;;1999.90;999.90;;;0.70;97.20;;;;;;5055106;28;20118;-71
2023/10/16 03:12:09;;;;;;;1999.90;999.90;;;0.70;97.30;;;;;;5052001;28;20040;-72
2023/10/16 03:15:26;;;;;;;1999.90;999.90;;;0.70;97.40;;;;;;5051077;28;20037;-72
2023/10/16 03:17:54;;;;;;;1999.90;999.90;;;0.60;97.30;;;;;;5054188;28;20190;-72
2023/10/16 03:20:24;;;;;;;1999.90;999.90;;;0.60;97.70;;;;;;5051339;28;20049;-72
2023/10/16 03:22:50;;;;;;;1999.90;999.90;;;0.60;97.80;;;;;;5057493;28;20407;-72
2023/10/16 03:28:05;;;;;;;1999.90;999.90;;;0.70;98.00;;;;;;5051463;28;20115;-72
2023/10/16 03:30:31;;;;;;;1999.90;999.90;;;0.70;98.00;;;;;;5052418;28;20118;-71
2023/10/16 03:32:58;;;;;;;1999.90;999.90;;;0.70;97.90;;;;;;5056146;28;20066;-71
2023/10/16 03:35:29;;;;;;;1999.90;999.90;;;0.70;97.80;;;;;;5056180;28;20033;-72
2023/10/16 03:37:56;;;;;;;1999.90;999.90;;;0.70;97.90;;;;;;5049302;28;20063;-71
2023/10/16 03:40:27;;;;;;;1999.90;999.90;;;0.70;98.20;;;;;;5052393;28;20039;-72
2023/10/16 03:42:53;;;;;;;1999.90;999.90;;;0.70;98.30;;;;;;5049992;28;20040;-71
2023/10/16 03:45:21;;;;;;;1999.90;999.90;;;0.70;98.20;;;;;;5053641;28;20037;-72
2023/10/16 03:47:53;;;;;;;1999.90;999.90;;;0.70;98.30;;;;;;5054389;28;20132;-72
2023/10/16 03:50:25;;;;;;;1999.90;999.90;;;0.60;98.10;;;;;;5053360;28;20082;-71
2023/10/16 03:52:54;;;;;;;1999.90;999.90;;;0.60;98.20;;;;;;5044256;28;20037;-71
2023/10/16 03:55:24;;;;;;;1999.90;999.90;;;0.70;98.30;;;;;;5047468;28;20029;-71
2023/10/16 03:57:55;;;;;;;1999.90;999.90;;;0.60;98.20;;;;;;5055273;28;20044;-73
2023/10/16 04:00:41;;;;;;;1999.90;999.90;;;0.50;98.00;;;;;;5050909;28;20657;-71
2023/10/16 04:03:09;;;;;;;1999.90;999.90;;;0.50;98.10;;;;;;5050636;28;20027;-72
2023/10/16 04:05:47;;;;;;;1999.90;999.90;;;0.50;98.10;;;;;;5046873;28;20029;-71
2023/10/16 04:08:26;;;;;;;1999.90;999.90;;;0.50;98.10;;;;;;5057318;28;20040;-70
2023/10/16 04:10:56;;;;;;;1999.90;999.90;;;0.50;98.10;;;;;;5049732;28;20744;-71
2023/10/16 04:13:31;;;;;;;1999.90;999.90;;;0.50;98.00;;;;;;5054573;28;20025;-73
2023/10/16 04:18:30;;;;;;;1999.90;999.90;;;0.30;97.60;;;;;;5053665;28;20025;-72
2023/10/16 04:23:53;;;;;;;1999.90;999.90;;;0.40;97.90;;;;;;5060863;28;20045;-71
2023/10/16 04:26:45;;;;;;;1999.90;999.90;;;0.20;97.60;;;;;;5056168;28;20078;-72
2023/10/16 04:31:45;;;;;;;1999.90;999.90;;;0.10;97.50;;;;;;5051461;28;20147;-72
2023/10/16 04:53:09;;;;;;;1999.90;999.90;;;0.20;98.20;;;;;;5045912;28;20107;-71
2023/10/16 05:03:35;;;;;;;1999.90;999.90;;;0.30;98.80;;;;;;5042668;28;20021;-71
2023/10/16 05:06:05;;;;;;;1999.90;999.90;;;0.20;98.70;;;;;;5044769;28;20034;-71
2023/10/16 05:14:04;;;;;;;1999.90;999.90;;;0.20;98.70;;;;;;5050945;28;20044;-72
2023/10/16 05:16:38;;;;;;;1999.90;999.90;;;0.20;98.70;;;;;;5047988;28;20120;-72
2023/10/16 05:19:16;;;;;;;1999.90;999.90;;;0.20;98.90;;;;;;5053918;28;20178;-71
2023/10/16 06:14:14;;;;;;;1999.90;999.90;;;0.20;98.20;;;;;;5051151;28;20042;-73
2023/10/16 06:16:42;;;;;;;1999.90;999.90;;;0.30;98.40;;;;;;5047414;28;20045;-75
2023/10/16 06:19:17;;;;;;;1999.90;999.90;;;0.40;98.20;;;;;;5051616;28;20031;-77
2023/10/16 06:21:46;;;;;;;1999.90;999.90;;;0.50;98.30;;;;;;5054110;28;20148;-76
2023/10/16 06:24:33;;;;;;;1999.90;999.90;;;0.50;98.50;;;;;;5051569;28;20020;-75
2023/10/16 06:27:10;;;;;;;1999.90;999.90;;;0.40;98.20;;;;;;5046197;28;20052;-78
2023/10/16 06:29:41;;;;;;;1999.90;999.90;;;0.50;98.10;;;;;;5049018;28;20035;-76
2023/10/16 06:32:07;;;;;;;1999.90;999.90;;;0.50;98.10;;;;;;5060658;28;20102;-76
2023/10/16 06:34:36;;;;;;;1999.90;999.90;;;0.60;98.20;;;;;;5055550;28;20033;-76
2023/10/16 06:37:06;;;;;;;1999.90;999.90;;;0.60;98.30;;;;;;5052988;28;20034;-75
2023/10/16 06:39:37;;;;;;;1999.90;999.90;;;0.50;98.00;;;;;;5049465;28;20036;-75
2023/10/16 06:42:04;;;;;;;1999.90;999.90;;;0.60;98.30;;;;;;5051376;28;20029;-75
2023/10/16 06:44:31;;;;;;;1999.90;999.90;;;0.60;98.20;;;;;;5056139;28;20668;-74
2023/10/16 06:47:00;;;;;;;1999.90;999.90;;;0.70;98.30;;;;;;5040482;28;20033;-76
2023/10/16 06:49:36;;;;;;;1999.90;999.90;;;0.80;98.20;;;;;;5048547;28;20040;-76
2023/10/16 06:52:06;;;;;;;1999.90;999.90;;;0.80;98.30;;;;;;5050160;28;20528;-75
2023/10/16 06:54:37;;;;;;;1999.90;999.90;;;0.90;98.30;;;;;;5055184;28;20043;-74
2023/10/16 06:57:11;;;;;;;;;;;0.90;98.30;;;;;;5053982;28;20284;-75
2023/10/16 06:59:41;;;;;;;1999.90;999.90;;;0.90;98.30;;;;;;5054613;28;19924;-75
2023/10/16 07:02:15;;;;;;;1999.90;999.90;;;1.00;98.40;;;;;;5049852;28;20029;-75
2023/10/16 07:04:44;;;;;;;1999.90;999.90;;;1.00;98.30;;;;;;5042589;28;20033;-76
2023/10/16 07:07:22;;;;;;;1999.90;999.90;;;1.10;98.20;;;;;;5055239;28;20040;-76
2023/10/16 07:09:48;;;;;;;1999.90;999.90;;;1.10;98.30;;;;;;5047433;28;20038;-76
2023/10/16 07:12:17;;;;;;;1999.90;999.90;;;1.20;98.30;;;;;;5053350;28;20130;-75
2023/10/16 07:14:47;;;;;;;1999.90;999.90;;;1.20;98.20;;;;;;5049893;28;20820;-76
2023/10/16 07:17:13;;;;;;;1999.90;999.90;;;1.20;98.10;;;;;;5054176;28;20060;-75
2023/10/16 07:19:41;;;;;;;1999.90;999.90;;;1.20;98.00;;;;;;5059097;28;20616;-74
2023/10/16 07:22:10;;;;;;;1999.90;999.90;;;1.30;98.30;;;;;;5055665;28;20530;-75
2023/10/16 07:24:36;;;;;;;1999.90;999.90;;;1.40;98.20;;;;;;5050005;28;20052;-76
2023/10/16 07:27:12;;;;;;;1999.90;999.90;;;1.40;98.10;;;;;;5052707;28;20158;-74
2023/10/16 07:29:41;;;;;;;1999.90;999.90;;;1.30;98.00;;;;;;5053593;28;20110;-76
2023/10/16 07:32:10;;;;;;;1999.90;999.90;;;1.50;98.20;;;;;;5053082;28;20052;-76
2023/10/16 07:34:37;;;;;;;1999.90;999.90;;;1.60;98.10;;;;;;5055737;28;20028;-76
2023/10/16 07:37:07;;;;;;;1999.90;999.90;;;1.70;97.80;;;;;;5036484;28;20601;-76
2023/10/16 07:39:33;;;;;;;1999.90;999.90;;;1.60;97.80;;;;;;5049615;28;20029;-76
2023/10/16 07:42:01;;;;;;;1999.90;999.90;;;1.50;97.70;;;;;;5052517;28;20075;-76
2023/10/16 07:44:28;;;;;;;1999.90;999.90;;;1.60;97.70;;;;;;5055752;28;20027;-75
2023/10/16 07:46:54;;;;;;;1999.90;999.90;;;1.80;97.30;;;;;;5050389;28;20029;-72
2023/10/16 07:49:25;;;;;;;1999.90;999.90;;;1.90;97.60;;;;;;5052174;28;20044;-73
2023/10/16 07:51:52;;;;;;;1999.90;999.90;;;1.90;97.40;;;;;;5050723;28;20087;-72
2023/10/16 07:54:20;;;;;;;1999.90;999.90;;;2.00;97.70;;;;;;5056398;28;20108;-73
2023/10/16 07:56:46;;;;;;;1999.90;999.90;;;2.20;97.40;;;;;;5059286;28;20041;-72
2023/10/16 07:59:18;;;;;;;1999.90;999.90;;;2.20;97.00;;;;;;5050385;28;20659;-72
2023/10/16 08:01:54;;;;;;;1999.90;999.90;;;2.30;96.90;;;;;;5043308;28;20037;-72
2023/10/16 08:06:55;;;;;;;1999.90;999.90;;;2.50;97.20;;;;;;5058190;28;20498;-72
2023/10/16 08:12:12;;;;;;;1999.90;999.90;;;2.80;97.20;;;;;;5051696;28;20080;-73
2023/10/16 08:14:41;;;;;;;1999.90;999.90;;;2.80;96.90;;;;;;5049016;28;20054;-72
2023/10/16 08:17:17;;;;;;;1999.90;999.90;;;3.00;97.00;;;;;;5057398;28;20039;-72
2023/10/16 08:19:44;;;;;;;1999.90;999.90;;;3.00;96.00;;;;;;5052401;28;20074;-73
2023/10/16 08:22:13;;;;;;;1999.90;999.90;;;3.10;96.20;;;;;;5052501;28;20029;-73
2023/10/16 08:24:57;;;;;;;1999.90;999.90;;;3.20;96.60;;;;;;5048045;28;20029;-72
2023/10/16 08:30:18;;;;;;;1999.90;999.90;;;3.50;96.20;;;;;;5057893;28;20039;-72
2023/10/16 08:35:10;;;;;;;1999.90;999.90;;;3.90;96.10;;;;;;5049724;28;20395;-72
2023/10/16 08:37:40;;;;;;;1999.90;999.90;;;4.00;95.30;;;;;;5050858;28;20041;-72
2023/10/16 08:40:18;;;;;;;1999.90;999.90;;;4.00;95.30;;;;;;5048441;28;20044;-72
2023/10/16 08:42:50;;;;;;;1999.90;999.90;;;4.20;95.10;;;;;;5051806;28;20059;-74
2023/10/16 08:45:24;;;;;;;1999.90;999.90;;;4.30;94.90;;;;;;5050516;28;20025;-73
2023/10/16 08:47:52;;;;;;;1999.90;999.90;;;4.40;94.80;;;;;;5052105;28;20049;-74
2023/10/16 08:50:24;;;;;;;1999.90;999.90;;;4.70;95.20;;;;;;5049935;28;20033;-74
2023/10/16 08:52:50;;;;;;;1999.90;999.90;;;4.80;94.70;;;;;;5056682;28;20040;-73
2023/10/16 08:55:17;;;;;;;1999.90;999.90;;;4.80;94.10;;;;;;5058064;28;20044;-75
2023/10/16 08:57:48;;;;;;;1999.90;999.90;;;5.10;94.50;;;;;;5060396;28;20048;-74
2023/10/16 09:00:19;;;;;;;;;;;5.30;93.60;;;;;;5053468;28;20056;-75
2023/10/16 09:02:51;;;;;;;1999.90;999.90;;;5.40;93.90;;;;;;5052888;28;19922;-74
2023/10/16 09:05:16;;;;;;;1999.90;999.90;;;5.40;93.40;;;;;;5066670;28;20428;-76
2023/10/16 09:07:43;;;;;;;1999.90;999.90;;;5.60;93.70;;;;;;5053697;28;20037;-75
2023/10/16 09:10:12;;;;;;;1999.90;999.90;;;5.90;93.50;;;;;;5053173;28;20029;-76
2023/10/16 09:13:15;;;;;;;1999.90;999.90;;;5.90;93.10;;;;;;5046670;28;20037;-75
2023/10/16 09:15:33;;;;;;;1999.90;999.90;;;6.00;92.30;;;;;;5050732;28;20518;-75
2023/10/16 09:17:59;;;;;;;1999.90;999.90;;;6.10;92.10;;;;;;5062844;28;20071;-74
2023/10/16 09:20:33;;;;;;;1999.90;999.90;;;6.30;91.10;;;;;;5053241;28;20448;-75
2023/10/16 09:23:02;;;;;;;1999.90;999.90;;;6.40;91.20;;;;;;5055974;28;20063;-75
2023/10/16 09:25:31;;;;;;;1999.90;999.90;;;6.50;91.40;;;;;;5047199;28;20043;-75
2023/10/16 09:27:57;;;;;;;1999.90;999.90;;;6.70;91.40;;;;;;5053852;28;20039;-75
2023/10/16 09:30:23;;;;;;;1999.90;999.90;;;6.80;90.20;;;;;;5059456;28;20024;-76
2023/10/16 09:32:51;;;;;;;1999.90;999.90;;;6.90;89.20;;;;;;5050833;28;20056;-75
2023/10/16 09:35:26;;;;;;;1999.90;999.90;;;7.00;88.40;;;;;;5035685;28;20090;-75
2023/10/16 09:37:52;;;;;;;1999.90;999.90;;;7.10;88.20;;;;;;5052098;28;20506;-76
2023/10/16 09:40:19;;;;;;;1999.90;999.90;;;7.20;88.30;;;;;;5058224;28;20036;-76
2023/10/16 09:43:08;;;;;;;1999.90;999.90;;;7.30;85.30;;;;;;5053344;28;20450;-77
2023/10/16 09:45:34;;;;;;;1999.90;999.90;;;7.30;84.00;;;;;;5054314;28;20058;-76
2023/10/16 09:48:19;;;;;;;1999.90;999.90;;;7.30;83.70;;;;;;5050835;28;20545;-76
2023/10/16 09:50:45;;;;;;;1999.90;999.90;;;7.50;81.20;;;;;;5049877;28;20431;-77
2023/10/16 09:53:13;;;;;;;1999.90;999.90;;;7.70;83.20;;;;;;5061231;28;20040;-75
2023/10/16 09:55:44;;;;;;;1999.90;999.90;;;7.80;84.70;;;;;;5056774;28;20028;-76
2023/10/16 09:58:11;;;;;;;1999.90;999.90;;;7.80;80.00;;;;;;5056705;28;20036;-76
2023/10/16 10:00:45;;;;;;;1999.90;999.90;;;7.90;82.10;;;;;;5042279;28;20060;-76
2023/10/16 10:03:12;;;;;;;1999.90;999.90;;;8.00;78.70;;;;;;5050021;28;20024;-77
2023/10/16 10:06:08;;;;;;;1999.90;999.90;;;8.10;79.30;;;;;;5055013;28;20033;-75
2023/10/16 10:11:44;;;;;;;1999.90;999.90;;;8.10;79.20;;;;;;5057762;28;20029;-75
2023/10/16 10:16:56;;;;;;;1999.90;999.90;;;8.20;76.10;;;;;;5057981;28;20033;-76
2023/10/16 10:19:35;;;;;;;1999.90;999.90;;;8.20;76.20;;;;;;5048181;28;20394;-78
2023/10/16 10:22:12;;;;;;;1999.90;999.90;;;8.30;74.60;;;;;;5055887;28;20082;-78
2023/10/16 10:24:39;;;;;;;1999.90;999.90;;;8.40;75.70;;;;;;5053824;28;20060;-77
2023/10/16 10:27:11;;;;;;;1999.90;999.90;;;8.70;76.20;;;;;;5050430;28;20506;-76
2023/10/16 10:29:42;;;;;;;1999.90;999.90;;;8.90;76.00;;;;;;5046345;28;20058;-76
2023/10/16 10:32:12;;;;;;;1999.90;999.90;;;9.00;75.30;;;;;;5051272;28;20558;-78
2023/10/16 10:34:38;;;;;;;1999.90;999.90;;;9.00;70.50;;;;;;5046667;28;20041;-76
2023/10/16 10:37:44;;;;;;;1999.90;999.90;;;8.90;72.30;;;;;;5045759;28;20049;-76
2023/10/16 10:40:33;;;;;;;1999.90;999.90;;;9.10;72.20;;;;;;5050342;28;20131;-75
2023/10/16 10:43:02;;;;;;;1999.90;999.90;;;9.10;71.50;;;;;;5056653;28;20028;-75
2023/10/16 10:45:35;;;;;;;1999.90;999.90;;;9.10;71.70;;;;;;5051177;28;20048;-74
2023/10/16 10:48:10;;;;;;;1999.90;999.90;;;9.20;71.70;;;;;;5050041;28;20491;-73
2023/10/16 10:50:38;;;;;;;1999.90;999.90;;;9.10;69.00;;;;;;5053166;28;20028;-73
2023/10/16 10:53:14;;;;;;;1999.90;999.90;;;9.20;71.40;;;;;;5053024;28;20055;-74
2023/10/16 10:55:56;;;;;;;1999.90;999.90;;;9.40;68.00;;;;;;5052251;28;20502;-74
2023/10/16 10:58:31;;;;;;;1999.90;999.90;;;9.60;67.40;;;;;;5053410;28;20098;-73
2023/10/16 11:03:48;;;;;;;1999.90;999.90;;;9.70;69.00;;;;;;5049638;28;20047;-74
2023/10/16 11:06:39;;;;;;;1999.90;999.90;;;9.40;67.20;;;;;;5050580;28;20025;-74
2023/10/16 11:09:18;;;;;;;1999.90;999.90;;;9.40;68.60;;;;;;5051154;28;20036;-75
2023/10/16 11:11:47;;;;;;;1999.90;999.90;;;9.70;69.90;;;;;;5050724;28;20041;-74
2023/10/16 11:14:13;;;;;;;1999.90;999.90;;;9.70;68.00;;;;;;5054209;28;20028;-75
2023/10/16 11:16:44;;;;;;;1999.90;999.90;;;9.70;67.50;;;;;;5055808;28;20042;-78
2023/10/16 11:19:09;;;;;;;1999.90;999.90;;;9.60;67.10;;;;;;5053883;28;20567;-77
2023/10/16 11:21:47;;;;;;;1999.90;999.90;;;9.50;65.40;;;;;;5047583;28;20071;-76
2023/10/16 11:24:16;;;;;;;1999.90;999.90;;;9.50;66.20;;;;;;5047951;28;20071;-78
2023/10/16 11:26:42;;;;;;;1999.90;999.90;;;9.40;66.40;;;;;;5054684;28;20031;-79
2023/10/16 11:29:12;;;;;;;1999.90;999.90;;;9.40;66.90;;;;;;5051235;28;20033;-78
2023/10/16 11:31:44;;;;;;;1999.90;999.90;;;9.50;67.90;;;;;;5057887;28;20077;-76
2023/10/16 11:34:13;;;;;;;1999.90;999.90;;;9.40;68.40;;;;;;5053776;28;20487;-76
2023/10/16 11:36:42;;;;;;;1999.90;999.90;;;9.30;69.50;;;;;;5048835;28;20033;-81
2023/10/16 11:39:08;;;;;;;1999.90;999.90;;;9.40;68.60;;;;;;5052300;28;20052;-78
2023/10/16 11:41:34;;;;;;;1999.90;999.90;;;9.50;70.00;;;;;;5058168;28;20032;-76
2023/10/16 11:44:14;;;;;;;1999.90;999.90;;;9.60;68.20;;;;;;5041277;28;20074;-79
2023/10/16 11:46:44;;;;;;;1999.90;999.90;;;9.50;68.50;;;;;;5052963;28;20028;-81
2023/10/16 11:51:48;;;;;;;1999.90;999.90;;;9.80;66.50;;;;;;5061139;28;20029;-81
2023/10/16 11:54:23;;;;;;;1999.90;999.90;;;9.80;69.80;;;;;;5050955;28;20024;-79
2023/10/16 11:56:55;;;;;;;1999.90;999.90;;;10.00;67.40;;;;;;5056054;28;20100;-79
2023/10/16 11:59:22;;;;;;;1999.90;999.90;;;10.00;67.90;;;;;;5061746;28;20033;-79
2023/10/16 12:01:52;;;;;;;1999.90;999.90;;;10.00;66.50;;;;;;5070715;28;20159;-76
2023/10/16 12:04:19;;;;;;;1999.90;999.90;;;10.10;63.00;;;;;;5061299;28;20032;-77
2023/10/16 12:06:47;;;;;;;1999.90;999.90;;;10.20;64.40;;;;;;5053985;28;20408;-75
2023/10/16 12:09:13;;;;;;;1999.90;999.90;;;10.10;64.70;;;;;;5042137;28;20033;-80
2023/10/16 12:11:44;;;;;;;1999.90;999.90;;;10.10;64.10;;;;;;5046718;28;20116;-75
2023/10/16 12:14:16;;;;;;;1999.90;999.90;;;10.10;64.50;;;;;;5052914;28;20522;-74
2023/10/16 12:16:45;;;;;;;1999.90;999.90;;;10.30;64.20;;;;;;5052842;28;20029;-76
2023/10/16 12:19:18;;;;;;;1999.90;999.90;;;10.30;65.00;;;;;;5052140;28;20017;-76
2023/10/16 12:21:48;;;;;;;1999.90;999.90;;;10.20;61.80;;;;;;5053036;28;20538;-76
2023/10/16 12:24:13;;;;;;;1999.90;999.90;;;10.40;64.00;;;;;;5053873;28;20033;-76
2023/10/16 12:26:42;;;;;;;1999.90;999.90;;;10.60;64.00;;;;;;5054961;28;20043;-75
2023/10/16 12:29:09;;;;;;;1999.90;999.90;;;10.70;62.40;;;;;;5054656;28;20037;-76
2023/10/16 12:31:41;;;;;;;1999.90;999.90;;;10.60;62.40;;;;;;5054072;28;20045;-77
2023/10/16 12:34:11;;;;;;;1999.90;999.90;;;10.70;63.60;;;;;;5051503;28;20022;-77
2023/10/16 12:36:42;;;;;;;1999.90;999.90;;;10.70;61.70;;;;;;5051709;28;20060;-76
2023/10/16 12:39:16;;;;;;;1999.90;999.90;;;10.80;59.20;;;;;;5056058;28;20114;-77
2023/10/16 12:41:42;;;;;;;1999.90;999.90;;;10.90;60.30;;;;;;5053775;28;20032;-75
2023/10/16 12:44:12;;;;;;;1999.90;999.90;;;10.70;59.90;;;;;;5043415;28;20109;-78
2023/10/16 12:46:38;;;;;;;1999.90;999.90;;;10.80;60.70;;;;;;5056927;28;20033;-78
2023/10/16 12:49:07;;;;;;;1999.90;999.90;;;10.80;58.70;;;;;;5052071;28;20079;-75
2023/10/16 12:51:38;;;;;;;1999.90;999.90;;;10.90;59.50;;;;;;5059134;28;20625;-78
2023/10/16 12:54:06;;;;;;;1999.90;999.90;;;11.20;61.20;;;;;;5055943;28;20482;-75
2023/10/16 12:56:32;;;;;;;1999.90;999.90;;;11.20;59.10;;;;;;5055859;28;20470;-78
2023/10/16 12:59:03;;;;;;;1999.90;999.90;;;11.10;58.20;;;;;;5054078;28;20024;-76
2023/10/16 13:01:29;;;;;;;1999.90;999.90;;;11.10;59.20;;;;;;5061216;28;20049;-75
2023/10/16 13:04:00;;;;;;;1999.90;999.90;;;11.00;58.50;;;;;;5055137;28;20034;-75
2023/10/16 13:06:28;;;;;;;1999.90;999.90;;;11.00;58.20;;;;;;5058725;28;20037;-76
2023/10/16 13:08:56;;;;;;;1999.90;999.90;;;11.20;57.00;;;;;;5050981;28;20032;-79
2023/10/16 13:11:21;;;;;;;1999.90;999.90;;;11.10;57.80;;;;;;5052179;28;20227;-74
2023/10/16 13:13:47;;;;;;;1999.90;999.90;;;11.30;58.40;;;;;;5057243;28;20564;-75
2023/10/16 13:16:24;;;;;;;1999.90;999.90;;;11.20;57.40;;;;;;5055771;28;20131;-75
2023/10/16 13:18:57;;;;;;;1999.90;999.90;;;11.20;58.10;;;;;;5054119;28;20041;-79
2023/10/16 13:21:33;;;;;;;1999.90;999.90;;;11.10;58.20;;;;;;5049456;28;20037;-75
2023/10/16 13:24:11;;;;;;;1999.90;999.90;;;11.10;59.00;;;;;;5044355;28;20096;-76
2023/10/16 13:26:37;;;;;;;1999.90;999.90;;;11.20;56.00;;;;;;5048308;28;20041;-78
2023/10/16 13:29:08;;;;;;;1999.90;999.90;;;11.30;57.40;;;;;;5055157;28;20020;-76
2023/10/16 13:31:35;;;;;;;;;;;11.50;57.90;;;;;;5053962;28;20051;-78
2023/10/16 13:34:02;;;;;;;1999.90;999.90;;;11.50;55.90;;;;;;5083571;28;19939;-79
2023/10/16 13:36:35;;;;;;;1999.90;999.90;;;11.30;56.40;;;;;;5056831;28;20025;-77
2023/10/16 13:39:08;;;;;;;1999.90;999.90;;;11.40;59.70;;;;;;5047805;28;20052;-76
2023/10/16 13:41:37;;;;;;;1999.90;999.90;;;11.30;58.20;;;;;;5049665;28;20025;-78
2023/10/16 13:44:03;;;;;;;1999.90;999.90;;;11.30;56.80;;;;;;5044129;28;20626;-77
2023/10/16 13:46:29;;;;;;;1999.90;999.90;;;11.30;55.80;;;;;;5047006;28;20028;-79
2023/10/16 13:48:57;;;;;;;1999.90;999.90;;;11.40;56.60;;;;;;5051106;28;20431;-79
2023/10/16 13:51:23;;;;;;;1999.90;999.90;;;12.00;54.80;;;;;;5052596;28;20024;-77
2023/10/16 13:53:48;;;;;;;1999.90;999.90;;;12.40;52.20;;;;;;5052678;28;20735;-77
2023/10/16 13:56:16;;;;;;;1999.90;999.90;;;12.80;51.10;;;;;;5048914;28;20496;-80
2023/10/16 13:58:45;;;;;;;1999.90;999.90;;;13.10;49.70;;;;;;5054587;28;20041;-80
2023/10/16 14:01:12;;;;;;;1999.90;999.90;;;13.80;49.70;;;;;;5060187;28;20083;-76
2023/10/16 14:03:37;;;;;;;1999.90;999.90;;;14.00;46.90;;;;;;5056244;28;20068;-76
2023/10/16 14:06:12;;;;;;;1999.90;999.90;;;14.60;46.40;;;;;;5053939;28;20052;-76
2023/10/16 14:08:41;;;;;;;1999.90;999.90;;;14.80;45.50;;;;;;5046265;28;20029;-77
2023/10/16 14:11:11;;;;;;;1999.90;999.90;;;15.00;43.00;;;;;;5048169;28;20095;-77
2023/10/16 14:13:39;;;;;;;;;;;15.90;41.00;;;;;;5051048;28;20036;-78
2023/10/16 14:16:17;;;;;;;1999.90;999.90;;;16.20;40.20;;;;;;5055706;28;19943;-77
2023/10/16 14:18:44;;;;;;;1999.90;999.90;;;16.10;39.20;;;;;;5049082;28;20087;-77
2023/10/16 14:21:11;;;;;;;1999.90;999.90;;;16.00;40.40;;;;;;5047839;28;20036;-78
2023/10/16 14:23:38;;;;;;;1999.90;999.90;;;16.20;39.60;;;;;;5051137;28;20202;-78
2023/10/16 14:26:10;;;;;;;1999.90;999.90;;;16.30;39.00;;;;;;5045288;28;20066;-77